Time;durP1;ratioP1;P1;durP2;ratioP2;P2;SDS_P1;SDS_P2;PMS_P1;PMS_P2;Temp;Humidity;BMP_temperature;BMP_pressure;BME280_temperature;BME280_humidity;BME280_pressure;Samples;Min_cycle;Max_cycle;Signal;HPM_P1;HPM_P2
2023/03/07 06:00:14;;;;;;;;;;;;;;;;;;;;;
2023/03/07 11:54:20;;;;;;;;;;;;;;;;;;;;;
2023/03/07 14:01:16;;;;;;;7.77;2.00;;;3.40;99.90;;;;;;4804352;29;20379;-93
2023/03/07 14:14:10;;;;;;;13.30;2.47;;;3.90;99.90;;;;;;5126534;23;20064;-92
2023/03/07 14:29:35;;;;;;;9.27;1.83;;;4.40;99.90;;;;;;4841794;29;20090;-93
2023/03/07 14:32:01;;;;;;;8.87;2.07;;;5.30;99.90;;;;;;4815331;29;20054;-92
2023/03/07 14:34:53;;;;;;;9.93;1.90;;;5.60;99.90;;;;;;4843307;29;20058;-92
2023/03/07 14:38:38;;;;;;;;;;;;;;;;;;;;;
2023/03/07 14:56:23;;;;;;;8.30;1.80;;;4.20;99.90;;;;;;4991387;23;20086;-86
2023/03/07 15:17:59;;;;;;;6.23;1.50;;;4.40;99.90;;;;;;4862762;29;20048;-88
2023/03/07 15:21:04;;;;;;;4.93;1.20;;;3.50;99.90;;;;;;4809290;29;20061;-87
2023/03/07 15:23:39;;;;;;;6.80;2.20;;;3.20;99.90;;;;;;4814681;29;20059;-88
2023/03/07 15:26:26;;;;;;;5.53;1.50;;;4.00;99.90;;;;;;4796963;29;20050;-87
2023/03/07 15:29:18;;;;;;;7.17;1.47;;;3.10;99.90;;;;;;4816812;29;20058;-88
2023/03/07 15:35:22;;;;;;;7.00;1.70;;;3.30;99.90;;;;;;5118381;24;20054;-88
2023/03/07 15:38:24;;;;;;;7.23;2.13;;;3.10;99.90;;;;;;4807766;29;20187;-87
2023/03/07 15:41:35;;;;;;;7.30;1.70;;;2.60;99.90;;;;;;4865754;24;20050;-87
2023/03/07 16:41:35;;;;;;;7.30;1.53;;;2.70;99.90;;;;;;4796658;24;20596;-90
2023/03/07 16:45:10;;;;;;;4.80;1.40;;;2.30;99.90;;;;;;5096587;23;20072;-90
2023/03/07 21:49:48;;;;;;;8.37;3.30;;;-1.00;99.90;;;;;;5895084;23;21409;31
2023/03/07 22:23:04;;;;;;;8.53;3.43;;;-1.10;99.90;;;;;;4932981;23;20071;-83
2023/03/07 22:25:46;;;;;;;9.33;3.50;;;-1.40;99.90;;;;;;4837260;29;20058;-85
2023/03/07 22:28:15;;;;;;;11.17;3.73;;;-0.70;99.90;;;;;;4827444;29;20486;-83
2023/03/07 22:31:30;;;;;;;10.27;3.60;;;-1.50;99.90;;;;;;4837246;23;20051;-84
2023/03/07 22:33:57;;;;;;;9.70;3.90;;;-1.00;99.90;;;;;;4811873;29;20134;-84
2023/03/07 22:36:23;;;;;;;12.30;4.27;;;-1.50;99.90;;;;;;4810887;29;20069;-84
2023/03/07 22:38:55;;;;;;;10.17;3.97;;;-0.90;99.90;;;;;;4827774;29;20042;-84
2023/03/07 22:41:22;;;;;;;10.83;3.87;;;0.20;99.90;;;;;;4849821;24;20070;-84
2023/03/07 22:44:10;;;;;;;9.60;4.03;;;-1.40;99.90;;;;;;4824427;29;20053;-84
2023/03/07 22:46:55;;;;;;;9.70;4.00;;;-1.50;99.90;;;;;;4825053;29;20041;-84
2023/03/07 22:52:16;;;;;;;16.25;4.60;;;-1.00;99.90;;;;;;4865877;23;20137;-83
2023/03/07 22:54:48;;;;;;;12.07;4.27;;;-0.40;99.90;;;;;;4831301;29;20098;-83
2023/03/07 22:57:20;;;;;;;11.10;4.17;;;-1.30;99.90;;;;;;4836462;29;20097;-83
2023/03/07 22:59:49;;;;;;;12.40;4.30;;;-1.60;99.90;;;;;;4841438;29;20117;-84
2023/03/07 23:02:27;;;;;;;11.40;4.03;;;0.40;99.90;;;;;;4831642;29;20128;-83
2023/03/07 23:04:52;;;;;;;12.33;4.50;;;-1.00;99.90;;;;;;4833910;29;20042;-83
2023/03/07 23:07:18;;;;;;;14.13;4.40;;;-1.80;99.90;;;;;;4859546;29;20128;-83
2023/03/07 23:09:49;;;;;;;10.50;4.40;;;-1.50;99.90;;;;;;4856571;29;20107;-83
2023/03/07 23:12:17;;;;;;;12.30;4.40;;;-1.20;99.90;;;;;;4853342;29;20086;-83
2023/03/07 23:20:53;;;;;;;12.57;4.70;;;-1.30;99.90;;;;;;4973036;23;20133;-83
2023/03/07 23:23:28;;;;;;;12.43;5.40;;;-1.40;99.90;;;;;;4889737;23;20056;-83
2023/03/07 23:25:58;;;;;;;13.07;5.47;;;0.10;99.90;;;;;;4830019;29;20060;-83
2023/03/07 23:28:43;;;;;;;13.27;5.53;;;-1.30;99.90;;;;;;4823058;29;20105;-82
2023/03/07 23:31:30;;;;;;;13.07;5.40;;;-0.20;99.90;;;;;;4834555;29;20072;-82
2023/03/07 23:34:17;;;;;;;12.33;5.57;;;-1.20;99.90;;;;;;4802419;29;20414;-83
2023/03/07 23:36:55;;;;;;;11.93;5.47;;;0.00;99.90;;;;;;4811593;29;20050;-83
2023/03/07 23:39:25;;;;;;;12.03;5.40;;;-0.30;99.90;;;;;;4813723;29;20050;-84
2023/03/07 23:41:51;;;;;;;11.77;5.63;;;-1.80;99.90;;;;;;4811726;29;20141;-84
2023/03/07 23:47:15;;;;;;;13.20;4.97;;;-1.20;99.90;;;;;;4826396;29;20499;-84
2023/03/07 23:49:56;;;;;;;13.10;5.37;;;-1.60;99.90;;;;;;4809550;29;20423;-84
2023/03/07 23:52:46;;;;;;;13.33;5.37;;;-1.50;99.90;;;;;;4829263;29;20125;-84
2023/03/07 23:55:15;;;;;;;13.53;5.50;;;-1.20;99.90;;;;;;4821626;29;20058;-84
2023/03/07 23:58:07;;;;;;;12.73;5.23;;;-0.70;99.90;;;;;;4828779;29;20565;-83
